EDDS/STR METAR and TAF weather

Enter ICAO airport designator
Station Type Date Time Source
EDDS METAR 2021/02/28 03:50 UTC NOAA

EDDS 280350Z 01003KT 340V040 CAVOK M01/M03 Q1034


Station Type Date Time Source
EDDS Decoded METAR 2021/02/28 03:50 UTC NOAA

Stuttgart-Echterdingen, Germany (EDDS) 48-41N 009-13E 391M
Feb 27, 2021 - 10:50 PM EST / 2021.02.28 0350 UTC
Wind: from the N (010 degrees) at 3 MPH (3 KT) (direction variable):0
Visibility: greater than 7 mile(s):0
Temperature: 30 F (-1 C)
Dew Point: 26 F (-3 C)
Relative Humidity: 86%
Pressure (altimeter): 30.53 in. Hg (1034 hPa)
ob: EDDS 280350Z 01003KT 340V040 CAVOK M01/M03 Q1034
cycle: 4

Station Type Date Time Source
EDDS TAF 2021/02/27 18:27 UTC NOAA

TAF EDDS 271700Z 2718/2818 05007KT CAVOK

Example: see airport list